Terminal Aerodrome Forecast
Issued by NWS Northern Indiana

Home | Current Version | Previous Version | Graphics & Text | Print | Product List | Glossary On
Versions: 1 2 3 4 5 6 7 8 9 10 11 12 13 14 15 16 17 18 19
010
FTUS43 KIWX 050140 AAA
TAFFWA
TAF AMD
KFWA 050140Z 0502/0524 29012KT 6SM BR VCSH OVC012
     FM050800 34008KT 4SM BR VCSH OVC010
     FM051300 01014G24KT P6SM SCT015
     FM051600 01014G24KT P6SM BKN035=

USA.gov is the U.S. government's official web portal to all federal, state and local government web resources and services.